Time;durP1;ratioP1;P1;durP2;ratioP2;P2;SDS_P1;SDS_P2;PMS_P1;PMS_P2;Temp;Humidity;BMP_temperature;BMP_pressure;BME280_temperature;BME280_humidity;BME280_pressure;Samples;Min_cycle;Max_cycle;Signal;HPM_P1;HPM_P2
2022/12/30 00:00:54;;;;;;;37.90;15.35;;;;;;;1.55;83.35;99275.72;5051567;28;20052;-56
2022/12/30 00:03:20;;;;;;;34.63;14.23;;;;;;;1.30;83.16;99222.06;5083039;28;20046;-53
2022/12/30 00:05:48;;;;;;;37.25;14.15;;;;;;;1.52;83.38;99255.22;5086812;28;20086;-54
2022/12/30 00:08:48;;;;;;;38.67;13.93;;;;;;;1.79;83.08;99271.31;5098689;28;20046;-54
2022/12/30 00:11:14;;;;;;;;;;;;;;;1.82;82.83;99266.19;5094019;28;20413;-51
2022/12/30 00:33:59;;;;;;;44.83;15.68;;;;;;;1.92;81.87;99263.56;5097022;28;20062;-52
2022/12/30 00:36:43;;;;;;;43.45;15.93;;;;;;;1.91;81.83;99259.28;5074181;28;20043;-55
2022/12/30 00:39:28;;;;;;;38.78;15.40;;;;;;;1.89;81.67;99266.13;5068610;28;20136;-53
2022/12/30 00:44:39;;;;;;;41.25;15.85;;;;;;;1.68;81.34;99212.44;5072312;28;20036;-51
2022/12/30 00:47:42;;;;;;;45.35;17.25;;;;;;;1.85;81.31;99238.81;5102658;28;20503;-51
2022/12/30 00:56:11;;;;;;;43.50;16.20;;;;;;;1.84;81.29;99242.22;5098651;28;20043;-52
2022/12/30 00:58:37;;;;;;;45.58;16.52;;;;;;;1.83;81.17;99248.25;5093819;28;20465;-55
2022/12/30 01:01:03;;;;;;;38.38;15.23;;;;;;;1.78;81.23;99224.34;5105813;28;20503;-51
2022/12/30 01:03:29;;;;;;;43.58;15.85;;;;;;;1.85;81.10;99237.97;5092176;28;20043;-53
2022/12/30 01:06:16;;;;;;;41.90;15.18;;;;;;;1.84;80.80;99228.56;5101166;28;20031;-54
2022/12/30 01:08:42;;;;;;;43.72;16.33;;;;;;;1.88;81.11;99230.28;5108364;28;20102;-52
2022/12/30 01:11:09;;;;;;;41.33;16.10;;;;;;;1.89;80.85;99225.13;5101764;28;20043;-54
2022/12/30 01:13:35;;;;;;;43.97;15.80;;;;;;;1.94;80.83;99218.25;5091715;28;20088;-56
2022/12/30 01:16:13;;;;;;;45.28;16.17;;;;;;;1.98;80.36;99216.53;5087856;28;20076;-54
2022/12/30 01:18:39;;;;;;;40.05;15.45;;;;;;;1.96;80.72;99218.25;5073988;28;20032;-57
2022/12/30 01:21:23;;;;;;;36.90;15.35;;;;;;;1.95;80.63;99216.53;5055153;28;20044;-51
2022/12/30 01:23:50;;;;;;;46.03;16.05;;;;;;;1.92;80.58;99212.28;5090723;28;20036;-52
2022/12/30 01:26:34;;;;;;;42.88;16.08;;;;;;;1.93;80.35;99213.16;5095691;28;20126;-53
2022/12/30 01:29:25;;;;;;;46.65;16.45;;;;;;;1.95;80.85;99219.94;5072444;28;20040;-54
2022/12/30 01:31:54;;;;;;;39.58;15.57;;;;;;;1.96;80.65;99220.81;5094983;28;20302;-55
2022/12/30 01:34:38;;;;;;;41.10;15.50;;;;;;;1.79;80.71;99225.19;5094549;28;20531;-55
2022/12/30 01:37:05;;;;;;;41.03;15.48;;;;;;;1.78;81.15;99219.19;5073834;28;20052;-52
2022/12/30 01:39:50;;;;;;;41.88;15.48;;;;;;;1.83;81.02;99230.31;5090566;28;20046;-54
2022/12/30 01:42:23;;;;;;;43.10;16.30;;;;;;;1.67;80.93;99234.66;5091404;28;20401;-53
2022/12/30 01:44:49;;;;;;;46.65;16.85;;;;;;;1.57;81.61;99224.50;5095558;28;20050;-56
2022/12/30 01:47:36;;;;;;;43.90;16.85;;;;;;;1.53;81.57;99215.94;5100665;28;20044;-52
2022/12/30 01:50:17;;;;;;;38.70;14.82;;;;;;;1.55;81.88;99221.06;5106074;28;20043;-52
2022/12/30 01:53:04;;;;;;;44.13;16.90;;;;;;;1.54;82.25;99201.44;5105786;28;20043;-53
2022/12/30 01:55:59;;;;;;;43.90;16.15;;;;;;;1.36;82.59;99166.53;5106913;28;20594;-55
2022/12/30 01:58:58;;;;;;;39.40;14.77;;;;;;;1.65;82.75;99199.66;5090175;28;20043;-52
2022/12/30 02:01:43;;;;;;;44.45;16.40;;;;;;;1.72;82.50;99185.97;5092858;28;20113;-55
2022/12/30 02:04:23;;;;;;;39.83;15.82;;;;;;;1.85;82.34;99187.56;5099085;28;20046;-51
2022/12/30 02:06:51;;;;;;;43.65;15.43;;;;;;;1.89;82.18;99183.25;5104627;28;20088;-52
2022/12/30 02:09:35;;;;;;;37.33;15.68;;;;;;;1.92;81.85;99185.81;5106267;28;20036;-51
2022/12/30 02:12:05;;;;;;;46.20;16.13;;;;;;;1.91;82.15;99177.28;5080305;28;20074;-55
2022/12/30 02:14:49;;;;;;;41.20;15.93;;;;;;;1.78;82.28;99174.81;5086855;28;20071;-55
2022/12/30 02:17:36;;;;;;;49.90;16.58;;;;;;;1.83;82.45;99183.31;5093156;28;20043;-53
2022/12/30 02:20:57;;;;;;;38.50;15.88;;;;;;;1.90;82.15;99187.53;5105693;28;20429;-51
2022/12/30 02:24:13;;;;;;;44.17;15.95;;;;;;;1.77;82.27;99179.09;5087743;28;20052;-53
2022/12/30 02:27:09;;;;;;;41.25;14.43;;;;;;;1.77;82.79;99183.38;5023664;28;20509;-56
2022/12/30 02:29:47;;;;;;;44.33;16.77;;;;;;;1.80;82.45;99179.06;5027250;28;20041;-52
2022/12/30 02:32:17;;;;;;;42.28;15.73;;;;;;;1.74;82.77;99180.81;5011318;28;20846;-53
2022/12/30 02:34:55;;;;;;;45.92;15.50;;;;;;;1.77;82.84;99173.97;5042843;28;20049;-56
2022/12/30 02:37:46;;;;;;;40.80;15.57;;;;;;;1.75;82.87;99162.88;5043743;28;20076;-56
2022/12/30 02:46:50;;;;;;;42.58;16.13;;;;;;;1.57;83.61;99137.41;5027903;28;20493;-57
2022/12/30 02:49:17;;;;;;;48.28;16.42;;;;;;;1.78;83.48;99173.06;5026874;28;20041;-54
2022/12/30 02:52:14;;;;;;;45.22;15.50;;;;;;;1.68;83.99;99169.75;5013946;28;20456;-53
2022/12/30 02:54:58;;;;;;;47.77;15.87;;;;;;;1.73;84.02;99169.69;5053663;28;20424;-55
2022/12/30 02:57:28;;;;;;;45.83;16.02;;;;;;;1.81;83.63;99172.22;5028550;28;20049;-54
2022/12/30 03:06:44;;;;;;;44.15;14.63;;;;;;;1.67;84.07;99132.16;5105151;28;20063;-55
2022/12/30 03:12:47;;;;;;;46.42;15.55;;;;;;;1.68;84.15;99168.88;5101967;28;20043;-53
2022/12/30 03:15:17;;;;;;;50.55;16.33;;;;;;;1.45;84.55;99135.75;5089462;28;20559;-53
2022/12/30 03:18:02;;;;;;;45.38;14.88;;;;;;;1.58;84.70;99157.84;5088677;28;20032;-52
2022/12/30 03:20:28;;;;;;;41.30;14.32;;;;;;;1.54;84.90;99165.56;5088593;28;20660;-54
2022/12/30 03:29:02;;;;;;;46.85;15.77;;;;;;;1.28;86.09;99142.69;5068448;28;20135;-55
2022/12/30 03:31:28;;;;;;;40.22;15.07;;;;;;;1.46;86.03;99167.34;5075455;28;20171;-56
2022/12/30 03:33:54;;;;;;;44.70;15.68;;;;;;;1.30;86.28;99140.97;5108630;28;20498;-54
2022/12/30 03:36:41;;;;;;;44.03;15.30;;;;;;;1.43;86.61;99170.75;5088318;28;20046;-52
2022/12/30 03:39:33;;;;;;;40.45;15.45;;;;;;;1.40;86.94;99168.25;5073357;28;20041;-53
2022/12/30 03:42:18;;;;;;;42.47;15.18;;;;;;;1.42;87.18;99169.06;5092554;28;20051;-54
2022/12/30 03:45:04;;;;;;;40.33;14.60;;;;;;;1.10;87.32;99112.91;5072975;28;20416;-50
2022/12/30 03:47:30;;;;;;;44.72;15.05;;;;;;;1.55;86.78;99175.81;5096830;28;20039;-54
2022/12/30 03:49:56;;;;;;;40.90;15.68;;;;;;;1.33;86.49;99148.63;5108410;28;20040;-54
2022/12/30 03:52:41;;;;;;;40.30;14.40;;;;;;;1.51;87.17;99180.97;5096075;28;20416;-54
2022/12/30 03:55:07;;;;;;;45.67;15.30;;;;;;;1.57;86.62;99173.25;5088412;28;20133;-52
2022/12/30 03:57:51;;;;;;;40.72;14.38;;;;;;;1.57;86.33;99174.06;5088542;28;20047;-55
2022/12/30 04:00:36;;;;;;;41.88;14.70;;;;;;;1.60;86.45;99168.94;5107775;28;20056;-55
2022/12/30 04:03:04;;;;;;;40.95;14.20;;;;;;;1.64;86.25;99167.22;5072513;28;20044;-55
2022/12/30 04:05:30;;;;;;;43.53;13.55;;;;;;;1.61;86.64;99164.69;5099794;28;20423;-53
2022/12/30 04:07:56;;;;;;;42.50;14.68;;;;;;;1.53;86.65;99157.03;5100221;28;20058;-56
2022/12/30 04:10:22;;;;;;;39.95;14.43;;;;;;;1.61;86.76;99151.88;5108634;28;20055;-57
2022/12/30 04:12:48;;;;;;;39.88;14.48;;;;;;;1.65;86.70;99151.00;5105654;28;20467;-56
2022/12/30 04:15:14;;;;;;;40.95;14.55;;;;;;;1.73;86.64;99146.63;5098654;28;20044;-53
2022/12/30 04:17:58;;;;;;;45.45;14.63;;;;;;;1.74;86.46;99134.69;5088271;28;20040;-56
2022/12/30 04:20:24;;;;;;;39.42;14.77;;;;;;;1.78;86.51;99133.81;5089195;28;20051;-56
2022/12/30 04:23:09;;;;;;;37.33;14.57;;;;;;;1.85;86.83;99145.69;5088853;28;20036;-53
2022/12/30 04:25:35;;;;;;;40.70;15.40;;;;;;;1.91;86.25;99145.66;5101026;28;20042;-54
2022/12/30 04:28:01;;;;;;;39.90;14.30;;;;;;;1.89;86.48;99144.81;5076040;28;20071;-52
2022/12/30 04:30:27;;;;;;;44.72;15.60;;;;;;;1.86;86.20;99130.31;5090175;28;20039;-55
2022/12/30 04:33:12;;;;;;;41.75;14.82;;;;;;;1.81;86.45;99120.97;5073129;28;20110;-48
2022/12/30 04:35:38;;;;;;;47.95;15.48;;;;;;;1.92;86.49;99127.72;5071989;28;20811;-54
2022/12/30 04:38:03;;;;;;;40.47;13.50;;;;;;;1.91;86.10;99120.03;5087871;28;20051;-53
2022/12/30 04:40:29;;;;;;;38.88;14.63;;;;;;;1.83;86.22;99116.69;5087833;28;20878;-50
2022/12/30 04:42:55;;;;;;;46.83;14.07;;;;;;;1.82;86.31;99115.00;5102459;28;20104;-53
2022/12/30 04:45:21;;;;;;;43.63;15.38;;;;;;;1.92;86.53;99119.16;5098987;28;20847;-54
2022/12/30 04:48:05;;;;;;;39.63;14.80;;;;;;;1.97;86.33;99117.41;5088774;28;20519;-54
2022/12/30 04:50:31;;;;;;;46.75;15.40;;;;;;;1.74;86.05;99086.00;5081583;28;20043;-55
2022/12/30 04:52:57;;;;;;;39.63;13.60;;;;;;;1.98;86.24;99114.00;5101950;28;20040;-54
2022/12/30 04:56:00;;;;;;;38.50;15.05;;;;;;;2.07;86.10;99112.19;5109278;28;20035;-56
2022/12/30 04:58:26;;;;;;;49.33;15.30;;;;;;;1.94;85.82;99084.09;5091353;28;20515;-52
2022/12/30 05:00:52;;;;;;;42.45;15.48;;;;;;;1.99;85.44;99108.00;5092428;28;20098;-54
2022/12/30 05:03:37;;;;;;;35.88;14.05;;;;;;;1.89;86.24;99107.22;5091938;28;20051;-52
2022/12/30 05:06:21;;;;;;;45.38;16.35;;;;;;;1.90;85.75;99115.75;5106590;28;20067;-56
2022/12/30 05:08:47;;;;;;;40.60;14.77;;;;;;;1.96;86.38;99115.72;5073646;28;20031;-53
2022/12/30 05:11:31;;;;;;;40.03;14.32;;;;;;;1.73;85.87;99068.94;5096877;28;20572;-53
2022/12/30 05:13:57;;;;;;;44.63;15.77;;;;;;;1.84;85.99;99124.34;5111123;28;20200;-53
2022/12/30 05:16:42;;;;;;;42.28;14.45;;;;;;;1.89;86.36;99122.59;5105862;28;20044;-54
2022/12/30 05:19:08;;;;;;;40.88;13.75;;;;;;;1.88;85.92;99117.50;5093999;28;20054;-53
2022/12/30 05:21:34;;;;;;;44.58;15.57;;;;;;;1.67;86.26;99087.78;5092070;28;20031;-52
2022/12/30 05:26:45;;;;;;;43.83;16.02;;;;;;;1.84;86.15;99103.00;5104084;28;20397;-55
2022/12/30 05:29:10;;;;;;;38.80;14.10;;;;;;;1.74;86.49;99088.56;5086704;28;20043;-53
2022/12/30 05:31:36;;;;;;;46.08;15.70;;;;;;;1.71;86.32;99089.44;5081890;28;20097;-51
2022/12/30 05:34:02;;;;;;;41.85;16.02;;;;;;;1.64;86.49;99095.47;5109791;28;20831;-51
2022/12/30 05:36:47;;;;;;;50.05;15.60;;;;;;;1.55;86.93;99098.13;5109885;28;20043;-52
2022/12/30 05:39:32;;;;;;;44.40;14.80;;;;;;;1.51;87.28;99110.13;5109616;28;20131;-52
2022/12/30 05:41:58;;;;;;;36.75;15.60;;;;;;;1.31;87.80;99083.75;5103528;28;20088;-54
2022/12/30 05:44:25;;;;;;;48.78;15.43;;;;;;;1.50;88.07;99113.53;5094307;28;20196;-55
2022/12/30 05:47:10;;;;;;;44.60;15.32;;;;;;;1.50;88.21;99102.44;5105137;28;20039;-54
2022/12/30 05:49:54;;;;;;;50.88;15.57;;;;;;;1.46;88.13;99103.31;5097124;28;20047;-54
2022/12/30 05:52:58;;;;;;;41.50;15.18;;;;;;;1.48;88.18;99114.38;5081298;28;20040;-54
2022/12/30 05:55:24;;;;;;;44.22;15.05;;;;;;;1.17;88.61;99059.97;5108153;28;20103;-55
2022/12/30 05:57:50;;;;;;;43.03;14.88;;;;;;;1.35;88.44;99087.19;5094931;28;20435;-54
2022/12/30 06:00:16;;;;;;;40.72;15.35;;;;;;;1.43;88.71;99104.19;5090836;28;20052;-55
2022/12/30 06:03:00;;;;;;;45.80;16.42;;;;;;;1.38;89.18;99092.25;5101709;28;20043;-53
2022/12/30 06:06:05;;;;;;;46.53;15.25;;;;;;;1.39;89.63;99106.78;5089423;28;20039;-51
2022/12/30 06:08:31;;;;;;;41.97;15.13;;;;;;;1.34;89.69;99099.13;5087700;28;20050;-55
2022/12/30 06:10:57;;;;;;;50.50;15.52;;;;;;;1.08;90.12;99065.16;5073222;28;20059;-55
2022/12/30 06:13:41;;;;;;;45.22;15.98;;;;;;;1.09;90.65;99065.16;5089203;28;20546;-52
2022/12/30 06:16:07;;;;;;;46.65;16.65;;;;;;;1.10;90.88;99066.03;5089964;28;20040;-53
2022/12/30 06:18:33;;;;;;;47.50;15.75;;;;;;;1.31;91.43;99108.56;5094024;28;20132;-51
2022/12/30 06:21:18;;;;;;;41.65;15.73;;;;;;;1.30;91.78;99104.28;5087936;28;20062;-52
2022/12/30 06:24:03;;;;;;;47.55;15.68;;;;;;;1.14;91.60;99081.34;5116589;27;20234;-52
2022/12/30 06:26:47;;;;;;;48.67;16.08;;;;;;;1.36;91.88;99109.38;5096824;28;20107;-58
2022/12/30 06:29:32;;;;;;;43.58;15.77;;;;;;;1.36;92.26;99111.94;5092681;28;20039;-56
2022/12/30 06:32:16;;;;;;;43.95;16.60;;;;;;;1.37;92.09;99104.22;5098016;28;20521;-53
2022/12/30 06:34:45;;;;;;;45.05;15.65;;;;;;;1.21;92.40;99079.56;5110157;28;20039;-52
2022/12/30 06:37:29;;;;;;;44.78;16.85;;;;;;;1.46;92.39;99109.28;5091664;28;20035;-50
2022/12/30 06:39:55;;;;;;;42.50;15.68;;;;;;;1.45;92.64;99112.72;5100175;28;20040;-49
2022/12/30 06:42:21;;;;;;;48.22;15.35;;;;;;;1.47;92.52;99098.16;5073809;28;20609;-51
2022/12/30 06:45:06;;;;;;;37.95;14.52;;;;;;;1.35;92.38;99074.38;5069649;28;20032;-55
2022/12/30 06:47:51;;;;;;;40.17;13.80;;;;;;;1.53;92.46;99092.16;5070203;28;20431;-53
2022/12/30 06:50:16;;;;;;;35.50;13.35;;;;;;;1.46;92.28;99059.78;5089610;28;20040;-49
2022/12/30 06:53:01;;;;;;;38.53;14.35;;;;;;;1.61;92.49;99088.69;5089112;28;20047;-50
2022/12/30 06:56:06;;;;;;;39.88;13.90;;;;;;;1.68;92.45;99094.59;5087360;28;20043;-49
2022/12/30 06:58:31;;;;;;;41.53;13.80;;;;;;;1.70;92.26;99086.03;5091108;28;20044;-50
2022/12/30 07:00:58;;;;;;;38.35;13.18;;;;;;;1.83;92.42;99088.50;5090925;28;20491;-54
2022/12/30 07:03:42;;;;;;;38.58;14.20;;;;;;;1.83;92.37;99091.06;5092552;28;20550;-53
2022/12/30 07:06:08;;;;;;;35.97;13.23;;;;;;;1.83;92.33;99089.34;5096873;28;20046;-51
2022/12/30 07:08:34;;;;;;;32.45;11.25;;;;;;;1.81;92.09;99082.53;5051678;28;20430;-51
2022/12/30 07:11:00;;;;;;;34.85;13.13;;;;;;;1.94;92.06;99092.66;5085838;28;20991;-50
2022/12/30 07:14:04;;;;;;;36.88;13.23;;;;;;;1.99;91.95;99108.00;5082557;28;20055;-49
2022/12/30 07:16:30;;;;;;;31.58;11.88;;;;;;;2.02;91.75;99105.41;5083197;28;20040;-53
2022/12/30 07:18:56;;;;;;;27.55;11.60;;;;;;;2.03;91.33;99107.09;5120007;27;20039;-54
2022/12/30 07:21:22;;;;;;;34.03;12.40;;;;;;;2.05;91.43;99106.22;5082968;28;20079;-50
2022/12/30 07:23:48;;;;;;;29.17;11.48;;;;;;;2.20;90.89;99110.34;5091168;28;20036;-50
2022/12/30 07:26:32;;;;;;;28.70;11.80;;;;;;;2.16;90.62;99082.19;5072206;28;20039;-52
2022/12/30 07:29:17;;;;;;;32.03;12.82;;;;;;;2.33;90.39;99116.19;5076564;28;20055;-51
2022/12/30 07:31:42;;;;;;;30.13;13.05;;;;;;;2.33;90.14;99100.81;5081510;28;20051;-51
2022/12/30 07:34:08;;;;;;;33.03;12.68;;;;;;;2.38;89.79;99106.75;5072001;28;20052;-53
2022/12/30 07:36:53;;;;;;;29.65;12.43;;;;;;;2.39;89.57;99106.75;5085956;28;20131;-49
2022/12/30 07:39:19;;;;;;;27.05;11.88;;;;;;;2.39;89.74;99096.47;5115996;27;20113;-48
2022/12/30 07:42:03;;;;;;;25.02;11.10;;;;;;;2.35;89.74;99102.50;5085411;28;20044;-51
2022/12/30 07:44:48;;;;;;;26.20;10.55;;;;;;;2.33;89.14;99101.66;5081886;28;20038;-51
2022/12/30 07:47:32;;;;;;;27.70;11.95;;;;;;;2.26;89.43;99112.84;5081430;28;20040;-49
2022/12/30 07:50:17;;;;;;;23.05;11.18;;;;;;;2.23;89.79;99109.47;5085860;28;20035;-52
2022/12/30 07:52:43;;;;;;;30.00;12.38;;;;;;;2.24;89.61;99112.03;5086004;28;20032;-51
2022/12/30 07:55:27;;;;;;;26.40;11.88;;;;;;;2.22;89.65;99108.63;5092472;28;20127;-48
2022/12/30 07:57:53;;;;;;;31.55;12.20;;;;;;;2.19;89.74;99111.22;5078942;28;20139;-48
2022/12/30 08:00:19;;;;;;;25.20;10.00;;;;;;;2.09;89.37;99105.31;5076544;28;20049;-51
2022/12/30 08:02:45;;;;;;;29.00;12.27;;;;;;;2.04;89.73;99112.19;5081508;28;20044;-49
2022/12/30 08:05:29;;;;;;;22.75;10.75;;;;;;;2.08;89.96;99115.59;5089646;28;20455;-48
2022/12/30 08:08:14;;;;;;;25.00;10.75;;;;;;;2.18;89.75;99109.53;5086728;28;20638;-52
2022/12/30 08:10:59;;;;;;;28.48;11.73;;;;;;;2.29;89.81;99099.16;5093305;28;20061;-52
2022/12/30 08:13:24;;;;;;;18.95;9.30;;;;;;;2.25;88.97;99098.31;5075084;28;20127;-50
2022/12/30 08:16:09;;;;;;;24.13;10.45;;;;;;;2.00;89.15;99068.66;5077727;28;20128;-52
2022/12/30 08:19:12;;;;;;;19.50;8.48;;;;;;;2.11;88.99;99074.53;5081889;28;20135;-47
2022/12/30 08:21:38;;;;;;;23.88;9.98;;;;;;;2.20;88.71;99087.25;5083846;28;20036;-52
2022/12/30 08:24:04;;;;;;;21.63;9.90;;;;;;;2.19;88.67;99092.44;5086248;28;20043;-52
2022/12/30 08:26:48;;;;;;;28.25;10.80;;;;;;;2.24;88.73;99093.22;5090072;28;20559;-51
2022/12/30 08:29:14;;;;;;;24.27;9.98;;;;;;;2.26;88.78;99081.22;5087991;28;20170;-50
2022/12/30 08:31:59;;;;;;;30.65;11.75;;;;;;;2.33;88.37;99090.56;5117413;27;20048;-53
2022/12/30 08:34:43;;;;;;;19.55;8.77;;;;;;;2.30;88.27;99082.91;5081915;28;20040;-50
2022/12/30 08:37:09;;;;;;;28.45;11.15;;;;;;;2.30;88.20;99078.63;5081776;28;20062;-49
2022/12/30 08:40:12;;;;;;;26.13;10.30;;;;;;;2.46;88.49;99081.88;5090563;28;20404;-48
2022/12/30 08:42:38;;;;;;;20.08;9.82;;;;;;;2.53;88.49;99071.50;5100191;28;20059;-49
2022/12/30 08:45:14;;;;;;;14.88;8.10;;;;;;;2.59;87.95;99073.16;5081973;28;20592;-51
2022/12/30 08:47:59;;;;;;;20.35;9.10;;;;;;;2.54;87.76;99080.91;5093787;28;20043;-50
2022/12/30 08:50:46;;;;;;;32.47;12.35;;;;;;;2.56;87.69;99075.75;5089563;28;20040;-48
2022/12/30 08:53:12;;;;;;;26.17;11.63;;;;;;;2.67;88.05;99079.03;5078924;28;20185;-48
2022/12/30 08:55:38;;;;;;;22.38;10.45;;;;;;;2.77;87.44;99079.78;5092297;28;20131;-49
2022/12/30 08:58:04;;;;;;;27.02;9.98;;;;;;;2.67;87.18;99076.47;5083376;28;20036;-49
2022/12/30 09:00:30;;;;;;;21.17;7.68;;;;;;;2.64;87.39;99080.78;5079158;28;20064;-49
2022/12/30 09:02:56;;;;;;;19.45;8.35;;;;;;;2.63;87.67;99082.50;5091931;28;20101;-50
2022/12/30 09:05:59;;;;;;;15.57;8.05;;;;;;;2.60;87.09;99074.84;5082159;28;20109;-52
2022/12/30 09:08:25;;;;;;;19.70;7.90;;;;;;;2.54;87.52;99077.50;5078289;28;20535;-51
2022/12/30 09:10:58;;;;;;;13.23;6.85;;;;;;;2.49;87.74;99071.56;5087681;28;20051;-48
2022/12/30 09:13:43;;;;;;;15.70;7.70;;;;;;;2.49;88.26;99064.72;5091921;28;20036;-50
2022/12/30 09:16:29;;;;;;;14.13;7.35;;;;;;;2.52;88.35;99067.22;5090592;28;20043;-48
2022/12/30 09:19:13;;;;;;;15.60;7.15;;;;;;;2.41;88.31;99061.38;5090862;28;20052;-49
2022/12/30 09:21:39;;;;;;;16.70;7.90;;;;;;;2.37;88.95;99061.44;5084270;28;20040;-48
2022/12/30 09:24:24;;;;;;;14.30;7.47;;;;;;;2.44;89.22;99055.38;5084569;28;20101;-51
2022/12/30 09:26:50;;;;;;;19.08;7.82;;;;;;;2.57;89.03;99049.22;5095160;28;20047;-49
2022/12/30 09:29:16;;;;;;;17.05;8.00;;;;;;;2.46;89.03;99016.00;5082190;28;20036;-48
2022/12/30 09:31:43;;;;;;;14.40;7.28;;;;;;;2.67;88.89;99048.22;5113329;27;20036;-49
2022/12/30 09:34:08;;;;;;;15.65;7.88;;;;;;;2.64;88.78;99039.72;5106485;27;20115;-53
2022/12/30 09:36:34;;;;;;;17.80;7.63;;;;;;;2.68;88.82;99043.94;5070838;28;20051;-51
2022/12/30 09:39:00;;;;;;;21.90;8.43;;;;;;;2.66;88.85;99048.28;5082575;28;20036;-52
2022/12/30 09:44:32;;;;;;;13.80;6.75;;;;;;;2.50;88.70;99007.41;5082534;28;20051;-48
2022/12/30 09:47:52;;;;;;;15.88;8.57;;;;;;;2.71;88.46;99038.78;5081167;28;20145;-50
2022/12/30 09:50:29;;;;;;;18.65;7.70;;;;;;;2.76;88.36;99040.44;5083942;28;20188;-48
2022/12/30 09:53:32;;;;;;;17.40;8.07;;;;;;;2.83;88.46;99034.31;5103916;27;20092;-48
2022/12/30 09:56:02;;;;;;;15.95;8.18;;;;;;;2.78;88.26;99035.25;5078983;28;20044;-50
2022/12/30 09:58:28;;;;;;;;;;;;;;;2.79;88.15;99036.97;5087331;28;20106;-51
2022/12/30 10:00:54;;;;;;;14.85;7.35;;;;;;;2.55;87.99;99007.34;5096595;28;19924;-49
2022/12/30 10:03:25;;;;;;;15.65;7.97;;;;;;;2.66;88.27;99044.00;5073764;28;20469;-48
2022/12/30 10:06:21;;;;;;;15.45;8.00;;;;;;;2.64;88.67;99034.59;5067321;28;20731;-49
2022/12/30 10:09:24;;;;;;;18.33;9.07;;;;;;;2.60;89.01;99038.94;5080961;28;20048;-50
2022/12/30 10:12:03;;;;;;;18.73;8.45;;;;;;;2.61;89.14;99025.25;5095459;28;20400;-48
2022/12/30 10:14:59;;;;;;;15.20;8.23;;;;;;;2.63;89.15;99032.91;5078141;28;20522;-48
2022/12/30 10:17:37;;;;;;;16.92;7.72;;;;;;;2.72;89.13;99033.63;5083014;28;20808;-49
2022/12/30 10:20:12;;;;;;;14.98;7.53;;;;;;;2.83;88.61;99018.06;5091131;28;20139;-49
2022/12/30 10:23:20;;;;;;;15.52;6.45;;;;;;;2.90;88.57;99024.81;5077816;28;20127;-52
2022/12/30 10:26:12;;;;;;;11.88;5.72;;;;;;;2.79;88.29;99040.38;5078653;27;20056;-49
2022/12/30 10:28:50;;;;;;;13.27;7.05;;;;;;;2.54;88.39;98996.25;5090128;28;20466;-49
2022/12/30 10:31:53;;;;;;;12.93;7.20;;;;;;;2.82;88.44;99029.22;5085748;28;20044;-52
2022/12/30 10:34:23;;;;;;;14.48;7.28;;;;;;;2.83;88.38;99028.34;5082703;28;20039;-51
2022/12/30 10:37:03;;;;;;;10.90;6.25;;;;;;;2.61;88.43;98997.00;5110402;27;20043;-48
2022/12/30 10:39:40;;;;;;;14.90;7.25;;;;;;;2.59;88.32;98988.47;5069466;28;20039;-49
2022/12/30 10:43:00;;;;;;;12.70;7.43;;;;;;;2.83;88.36;99015.50;5069080;28;20074;-49
2022/12/30 10:45:34;;;;;;;12.48;7.30;;;;;;;2.87;88.36;98997.50;5021718;28;20033;-51
2022/12/30 10:48:38;;;;;;;11.90;6.07;;;;;;;2.90;88.28;98991.47;5024286;28;20049;-48
2022/12/30 10:51:05;;;;;;;11.20;6.93;;;;;;;2.78;88.19;98963.41;5071157;28;20127;-47
2022/12/30 10:53:31;;;;;;;13.48;6.63;;;;;;;2.76;87.58;98942.91;5085572;28;20469;-47
2022/12/30 10:56:17;;;;;;;11.82;6.68;;;;;;;3.02;87.54;98996.41;5113540;27;20109;-48
2022/12/30 10:58:46;;;;;;;11.48;6.07;;;;;;;2.94;87.45;99005.94;5087707;28;20511;-51
2022/12/30 11:01:19;;;;;;;12.00;7.13;;;;;;;3.03;87.74;98992.13;5078690;28;20201;-49
2022/12/30 11:03:49;;;;;;;13.05;6.78;;;;;;;3.14;87.53;99005.66;5092271;28;20074;-51
2022/12/30 11:06:21;;;;;;;13.88;6.43;;;;;;;2.97;87.43;98980.25;5091588;28;20029;-50
2022/12/30 11:09:07;;;;;;;12.57;6.63;;;;;;;3.08;87.21;99005.75;5101984;27;20044;-49
2022/12/30 11:14:42;;;;;;;12.27;7.28;;;;;;;2.96;87.20;99011.91;5090284;28;20035;-47
2022/12/30 11:17:29;;;;;;;6.90;4.00;;;;;;;3.04;87.32;99007.50;5094916;28;20036;-51
2022/12/30 11:19:57;;;;;;;11.35;6.65;;;;;;;2.99;87.19;99006.72;5101030;27;20059;-48
2022/12/30 11:23:01;;;;;;;11.75;6.00;;;;;;;2.94;87.47;99014.50;5076908;28;20126;-49
2022/12/30 11:25:45;;;;;;;10.55;5.15;;;;;;;2.84;88.04;99022.34;5077575;28;20047;-49
2022/12/30 11:28:16;;;;;;;10.85;5.13;;;;;;;2.76;88.15;99019.91;5087872;28;20044;-48
2022/12/30 11:30:51;;;;;;;13.02;6.53;;;;;;;2.80;88.30;99021.53;5074883;28;20122;-49
2022/12/30 11:33:45;;;;;;;10.98;6.40;;;;;;;2.82;89.03;99026.66;5084598;28;20586;-49
2022/12/30 11:36:14;;;;;;;11.27;5.75;;;;;;;2.84;88.93;99022.34;5094470;28;20050;-49
2022/12/30 11:38:42;;;;;;;12.38;6.40;;;;;;;2.75;89.44;99018.19;5098895;27;20055;-55
2022/12/30 11:41:27;;;;;;;12.45;6.85;;;;;;;2.71;89.96;99016.53;5085514;28;20044;-48
2022/12/30 11:43:59;;;;;;;9.23;4.80;;;;;;;2.73;90.47;99014.78;5075853;28;20047;-47
2022/12/30 11:46:46;;;;;;;10.60;5.95;;;;;;;2.66;91.00;99012.34;5071396;28;20044;-49
2022/12/30 11:49:19;;;;;;;12.80;6.03;;;;;;;2.61;91.54;99007.28;5111306;27;20051;-50
2022/12/30 11:52:03;;;;;;;11.68;6.35;;;;;;;2.66;92.42;99009.78;5075797;28;20064;-50
2022/12/30 11:54:52;;;;;;;13.45;7.28;;;;;;;2.66;92.42;99014.91;5074789;28;20044;-52
2022/12/30 11:57:30;;;;;;;15.35;7.03;;;;;;;2.41;93.27;98979.28;5081837;28;20043;-49
2022/12/30 12:00:18;;;;;;;11.10;5.18;;;;;;;2.67;93.30;99025.13;5075377;28;20759;-50
2022/12/30 12:03:21;;;;;;;12.63;7.25;;;;;;;2.68;94.06;99020.84;5073394;28;20032;-49
2022/12/30 12:05:48;;;;;;;12.68;6.57;;;;;;;2.66;93.99;99020.91;5075828;28;20033;-49
2022/12/30 12:08:34;;;;;;;13.07;5.57;;;;;;;2.64;94.35;99024.34;5091132;28;20120;-49
2022/12/30 12:11:07;;;;;;;8.80;4.80;;;;;;;2.62;94.75;99026.91;5076349;28;20039;-50
2022/12/30 12:13:45;;;;;;;9.73;5.60;;;;;;;2.61;95.12;99019.25;5084573;28;20040;-47
2022/12/30 12:16:18;;;;;;;11.82;5.28;;;;;;;2.56;95.73;99019.31;5101055;28;20067;-47
2022/12/30 12:18:46;;;;;;;12.82;6.32;;;;;;;2.60;95.97;99013.28;5090902;28;20079;-49
2022/12/30 12:21:31;;;;;;;10.02;5.43;;;;;;;2.60;95.78;99015.84;5078323;28;20040;-50
2022/12/30 12:24:33;;;;;;;9.65;5.47;;;;;;;2.54;96.29;99021.03;5084420;28;20048;-48
2022/12/30 12:27:26;;;;;;;10.57;6.00;;;;;;;2.54;96.56;99016.75;5057610;28;20033;-49
2022/12/30 12:30:38;;;;;;;11.15;5.68;;;;;;;2.51;97.08;99029.63;5124884;27;20040;-49
2022/12/30 12:33:42;;;;;;;9.60;5.60;;;;;;;2.47;97.41;99027.09;5091774;28;20048;-54
2022/12/30 12:36:22;;;;;;;6.57;4.05;;;;;;;2.45;97.80;99021.16;5098008;28;20043;-49
2022/12/30 12:39:03;;;;;;;13.75;6.30;;;;;;;2.46;98.37;99023.69;5086575;28;20053;-51
2022/12/30 12:41:51;;;;;;;12.32;6.13;;;;;;;2.44;98.81;99020.31;5103724;27;20096;-48
2022/12/30 12:44:40;;;;;;;7.70;4.07;;;;;;;2.45;99.16;99028.88;5094422;28;20491;-55
2022/12/30 12:47:33;;;;;;;12.43;6.25;;;;;;;2.46;99.40;99010.88;5068794;28;20052;-50
2022/12/30 12:50:27;;;;;;;13.10;6.65;;;;;;;2.53;99.61;99017.63;5074322;28;20036;-52
2022/12/30 12:53:03;;;;;;;12.18;6.72;;;;;;;2.58;99.30;99019.28;5095396;28;20039;-50
2022/12/30 12:55:55;;;;;;;11.07;6.13;;;;;;;2.54;99.28;99021.91;5061265;28;20048;-47
2022/12/30 12:59:14;;;;;;;11.00;5.30;;;;;;;2.53;99.58;99025.31;5093792;28;20458;-53
2022/12/30 13:01:43;;;;;;;10.38;5.20;;;;;;;2.53;99.72;99033.03;5079695;28;20071;-52
2022/12/30 13:04:30;;;;;;;12.07;6.25;;;;;;;2.52;99.64;99033.88;5081412;28;20040;-53
2022/12/30 13:07:36;;;;;;;13.50;6.72;;;;;;;2.51;99.88;99028.78;5087072;28;20028;-50
2022/12/30 13:10:12;;;;;;;13.73;6.72;;;;;;;2.42;99.84;99001.53;5096546;28;20044;-52
2022/12/30 13:12:43;;;;;;;11.07;5.72;;;;;;;2.58;99.61;99029.53;5082940;28;20490;-51
2022/12/30 13:15:29;;;;;;;14.13;7.13;;;;;;;2.55;100.00;99026.16;5101244;28;20040;-55
2022/12/30 13:18:18;;;;;;;15.98;7.65;;;;;;;2.55;100.00;99025.31;5057683;28;20040;-53
2022/12/30 13:21:05;;;;;;;14.15;7.45;;;;;;;2.56;100.00;99034.72;5081483;28;20040;-55